Home   Weather   USA   Omaha   Past weeks
Flag for USA

Past Weather in Omaha, Nebraska, USA — Yesterday and Last 2 Weeks

Currently: 61 °F. Passing clouds. (Weather station: Millard Airport, USA). See more current weather

Past Weather in Omaha — Graph

°F

Omaha Temperature Yesterday

Maximum temperature yesterday: 69 °F (at 5:15 pm)
Minimum temperature yesterday: 40 °F (at 6:55 am)
Average temperature yesterday: 58 °F

High & Low Weather Summary for the Past Weeks

 TemperatureHumidityPressure
High86 °F (Apr 13, 6:35 pm)94% (Apr 16, 9:15 am)30.45 "Hg (Apr 16, 9:15 am)
Low32 °F (Apr 20, 6:55 am)17% (Apr 14, 7:55 pm)29.28 "Hg (Apr 16, 1:35 pm)
Average57 °F47%29.98 "Hg
* Reported Apr 10 12:15 am — Apr 25 12:55 am, Omaha. Weather by CustomWeather, © 2024

Note: Actual official high and low records may vary slightly from our data, if they occured in-between our weather recording intervals... More about our weather records

Omaha Weather History for the Previous 24 Hours

Scroll right to see more
 ConditionsComfort  
Time TempWeatherWind HumidityBarometerVisibility
12:55 am
Thu, Apr 25
60 °FOvercast.7 mph45%30.10 "Hg10 mi
12:15 am60 °FOvercast.5 mph42%30.11 "Hg10 mi
11:55 pm
Wed, Apr 24
60 °FPartly cloudy.6 mph41%30.10 "Hg10 mi
11:15 pm60 °FPassing clouds.6 mph39%30.10 "Hg10 mi
10:55 pm62 °FOvercast.6 mph36%30.10 "Hg10 mi
10:35 pm63 °FMostly cloudy.5 mph33%30.10 "Hg10 mi
10:15 pm62 °FPartly cloudy.6 mph33%30.10 "Hg10 mi
9:55 pm63 °FPassing clouds.3 mph31%30.10 "Hg10 mi
9:35 pm64 °FOvercast.5 mph31%30.10 "Hg10 mi
8:35 pm63 °FPassing clouds.No wind32%30.08 "Hg10 mi
8:15 pm65 °FPassing clouds.3 mph27%30.09 "Hg10 mi
7:55 pm65 °FSunny.3 mph28%30.09 "Hg10 mi
7:35 pm65 °FSunny.6 mph28%30.09 "Hg10 mi
7:15 pm66 °FSunny.5 mph27%30.09 "Hg10 mi
6:55 pm67 °FSunny.7 mph24%30.10 "Hg10 mi
6:35 pm67 °FSunny.8 mph24%30.10 "Hg10 mi
5:55 pm67 °FScattered clouds.8 mph23%30.11 "Hg10 mi
5:35 pm68 °FPartly sunny.5 mph21%30.11 "Hg10 mi
5:15 pm69 °FPartly sunny.5 mph24%30.12 "Hg10 mi
4:55 pm68 °FScattered clouds.5 mph23%30.12 "Hg10 mi
4:35 pm67 °FSunny.5 mph23%30.13 "Hg10 mi
4:15 pm68 °FSunny.5 mph26%30.14 "Hg10 mi
3:35 pm66 °FSunny.No wind26%30.15 "Hg10 mi
2:55 pm66 °FSunny.5 mph27%30.17 "Hg10 mi
2:35 pm66 °FSunny.3 mph26%30.18 "Hg10 mi
2:15 pm66 °FSunny.No wind26%30.18 "Hg10 mi
1:55 pm66 °FSunny.5 mph27%30.19 "Hg10 mi
1:35 pm65 °FSunny.6 mph28%30.20 "Hg10 mi
12:55 pm64 °FSunny.3 mph26%30.22 "Hg10 mi
12:35 pm63 °FSunny.No wind29%30.22 "Hg10 mi
12:15 pm63 °FSunny.7 mph30%30.23 "Hg10 mi
11:55 am62 °FSunny.No wind32%30.24 "Hg10 mi
11:35 am61 °FSunny.5 mph36%30.25 "Hg10 mi
10:55 am59 °FSunny.No wind44%30.25 "Hg10 mi
10:35 am58 °FSunny.3 mph46%30.25 "Hg10 mi
10:15 am58 °FSunny.No wind48%30.24 "Hg10 mi
9:55 am57 °FSunny.No wind51%30.24 "Hg10 mi
9:35 am55 °FSunny.3 mph53%30.24 "Hg10 mi
9:15 am54 °FSunny.No wind54%30.23 "Hg10 mi
8:15 am48 °FSunny.3 mph66%30.22 "Hg10 mi
7:55 am47 °FSunny.No wind70%30.22 "Hg10 mi
7:15 am40 °FSunny.No wind81%30.22 "Hg10 mi
6:55 am40 °FSunny.No wind83%30.21 "Hg10 mi
6:15 am41 °FClear.No wind78%30.20 "Hg10 mi
5:55 am41 °FClear.No wind77%30.20 "Hg10 mi
5:35 am43 °FClear.No wind72%30.19 "Hg10 mi
5:10 am43 °FClear.No wind70%30.19 "Hg10 mi
4:55 am44 °FClear.No wind73%30.19 "Hg10 mi
4:35 am45 °FClear.No wind66%30.19 "Hg10 mi
4:15 am48 °FClear.No wind58%30.18 "Hg10 mi
3:55 am48 °FClear.No wind58%30.17 "Hg10 mi
3:35 am49 °FClear.No wind54%30.17 "Hg10 mi
2:55 am51 °FClear.5 mph51%30.16 "Hg10 mi
2:35 am52 °FClear.3 mph49%30.16 "Hg10 mi
2:15 am50 °FClear.5 mph53%30.16 "Hg10 mi
Weather by CustomWeather, © 2024

See weather overview